Time;durP1;ratioP1;P1;durP2;ratioP2;P2;SDS_P1;SDS_P2;PMS_P1;PMS_P2;Temp;Humidity;BMP_temperature;BMP_pressure;BME280_temperature;BME280_humidity;BME280_pressure;Samples;Min_cycle;Max_cycle;Signal;HPM_P1;HPM_P2
2021/01/09 00:00:13;;;;;;;15.33;8.33;;;1.90;99.90;;;;;;5095797;28;20048;-73
2021/01/09 00:02:41;;;;;;;16.50;8.27;;;1.90;99.90;;;;;;5093270;28;20044;-73
2021/01/09 00:05:09;;;;;;;16.73;8.53;;;1.90;99.90;;;;;;5094783;28;20051;-73
2021/01/09 00:07:37;;;;;;;16.00;7.93;;;1.80;99.90;;;;;;5098995;28;20572;-73
2021/01/09 00:10:06;;;;;;;17.40;9.07;;;1.80;99.90;;;;;;5097479;28;20039;-73
2021/01/09 00:12:32;;;;;;;17.77;9.23;;;1.80;99.90;;;;;;5098016;28;20059;-72
2021/01/09 00:15:10;;;;;;;19.80;10.57;;;1.80;99.90;;;;;;5094611;28;20043;-72
2021/01/09 00:17:38;;;;;;;20.27;10.00;;;1.70;99.90;;;;;;5093358;28;20468;-70
2021/01/09 00:20:10;;;;;;;19.07;9.27;;;1.70;99.90;;;;;;5095825;28;20526;-71
2021/01/09 00:22:36;;;;;;;16.77;9.17;;;1.70;99.90;;;;;;5094381;28;20044;-71
2021/01/09 00:25:05;;;;;;;19.20;9.73;;;1.70;99.90;;;;;;5095917;28;20079;-70
2021/01/09 00:27:31;;;;;;;17.40;8.80;;;1.70;99.90;;;;;;5094704;28;20442;-71
2021/01/09 00:30:01;;;;;;;16.67;8.60;;;1.80;99.90;;;;;;5101176;28;20048;-72
2021/01/09 00:32:27;;;;;;;19.87;10.53;;;1.80;99.90;;;;;;5090552;28;20044;-72
2021/01/09 00:34:54;;;;;;;19.03;9.87;;;1.80;99.90;;;;;;5106874;28;20055;-72
2021/01/09 00:37:24;;;;;;;18.50;10.07;;;1.80;99.90;;;;;;5097486;28;20050;-71
2021/01/09 00:39:51;;;;;;;19.67;10.50;;;1.80;99.90;;;;;;5100746;28;20054;-72
2021/01/09 00:42:18;;;;;;;19.33;10.87;;;1.80;99.90;;;;;;5105071;28;20438;-72
2021/01/09 00:44:45;;;;;;;19.83;10.13;;;1.70;99.90;;;;;;5093559;28;20074;-72
2021/01/09 00:47:11;;;;;;;21.27;10.40;;;1.70;99.90;;;;;;5105060;28;20056;-71
2021/01/09 00:49:38;;;;;;;19.17;9.47;;;1.70;99.90;;;;;;5099750;28;20058;-71
2021/01/09 00:52:05;;;;;;;19.00;9.70;;;1.70;99.90;;;;;;5097370;28;20059;-72
2021/01/09 00:54:33;;;;;;;19.50;8.70;;;1.90;99.90;;;;;;5095959;28;20052;-72
2021/01/09 00:56:59;;;;;;;20.87;9.33;;;2.00;99.90;;;;;;5105889;28;20047;-71
2021/01/09 00:59:26;;;;;;;20.53;9.23;;;2.20;99.90;;;;;;5097410;28;20079;-71
2021/01/09 01:01:54;;;;;;;17.17;8.80;;;1.90;99.90;;;;;;5099253;28;20078;-74
2021/01/09 01:04:20;;;;;;;17.40;8.50;;;1.80;99.90;;;;;;5088760;28;20047;-73
2021/01/09 01:06:50;;;;;;;19.70;8.33;;;1.80;99.90;;;;;;5089804;28;20048;-74
2021/01/09 01:09:17;;;;;;;16.70;8.60;;;1.70;99.90;;;;;;5089485;28;20048;-73
2021/01/09 01:11:44;;;;;;;15.57;7.70;;;1.80;99.90;;;;;;5089117;28;20040;-73
2021/01/09 01:14:11;;;;;;;15.43;8.17;;;1.90;99.90;;;;;;5089586;28;20824;-73
2021/01/09 01:16:38;;;;;;;20.40;9.00;;;1.70;99.90;;;;;;5092074;28;20051;-73
2021/01/09 01:19:05;;;;;;;15.63;7.10;;;1.90;99.90;;;;;;5097783;28;20092;-74
2021/01/09 01:21:34;;;;;;;16.20;8.20;;;1.90;99.90;;;;;;5105225;28;20108;-71
2021/01/09 01:24:01;;;;;;;16.83;8.10;;;1.80;99.90;;;;;;5117800;28;20070;-75
2021/01/09 01:26:31;;;;;;;18.27;8.80;;;1.80;99.90;;;;;;5121006;28;20048;-74
2021/01/09 01:28:59;;;;;;;15.57;7.93;;;1.80;99.90;;;;;;5119018;28;20044;-74
2021/01/09 01:31:27;;;;;;;14.90;7.77;;;1.70;99.90;;;;;;5119403;28;20101;-72
2021/01/09 01:33:53;;;;;;;16.60;8.13;;;1.70;99.90;;;;;;5115826;28;20076;-71
2021/01/09 01:36:20;;;;;;;16.87;7.77;;;1.80;99.90;;;;;;5121054;28;20032;-72
2021/01/09 01:38:47;;;;;;;16.87;8.17;;;1.90;99.90;;;;;;5118034;28;20035;-71
2021/01/09 01:41:17;;;;;;;14.43;7.23;;;1.90;99.90;;;;;;5124375;28;20042;-71
2021/01/09 01:43:48;;;;;;;14.47;7.50;;;1.90;99.90;;;;;;5093606;28;20051;-71
2021/01/09 01:46:16;;;;;;;18.37;7.83;;;1.90;99.90;;;;;;5095533;28;20044;-71
2021/01/09 01:48:43;;;;;;;16.40;8.50;;;1.90;99.90;;;;;;5086356;28;20556;-71
2021/01/09 01:51:13;;;;;;;15.33;7.80;;;1.90;99.90;;;;;;5090423;28;20064;-71
2021/01/09 01:53:40;;;;;;;16.80;8.67;;;1.80;99.90;;;;;;5090159;28;20572;-71
2021/01/09 01:56:07;;;;;;;17.67;9.13;;;1.80;99.90;;;;;;5092960;28;20059;-71
2021/01/09 01:58:38;;;;;;;17.93;9.37;;;1.70;99.90;;;;;;5092553;28;20044;-71
2021/01/09 02:01:05;;;;;;;18.63;9.07;;;1.60;99.90;;;;;;5095071;28;20065;-71
2021/01/09 02:03:35;;;;;;;18.63;9.10;;;1.70;99.90;;;;;;5094396;28;20044;-71
2021/01/09 02:06:10;;;;;;;20.60;9.73;;;1.60;99.90;;;;;;5098830;28;20066;-71
2021/01/09 02:08:41;;;;;;;20.13;9.87;;;1.70;99.90;;;;;;5095271;27;20048;-71
2021/01/09 02:11:15;;;;;;;16.77;8.93;;;1.70;99.90;;;;;;5101688;28;20211;-71
2021/01/09 02:13:46;;;;;;;20.57;8.87;;;1.70;99.90;;;;;;5097947;28;20044;-71
2021/01/09 02:16:15;;;;;;;17.20;8.20;;;1.80;99.90;;;;;;5097559;28;20047;-71
2021/01/09 02:18:44;;;;;;;20.63;9.77;;;1.80;99.90;;;;;;5097866;28;20040;-71
2021/01/09 02:21:18;;;;;;;17.40;8.67;;;1.70;99.90;;;;;;5099325;28;20058;-71
2021/01/09 02:23:46;;;;;;;18.17;8.50;;;1.70;99.90;;;;;;5098952;28;20491;-71
2021/01/09 02:26:13;;;;;;;17.63;8.70;;;1.60;99.90;;;;;;5098348;28;20048;-71
2021/01/09 02:28:39;;;;;;;17.53;8.77;;;1.70;99.90;;;;;;5096616;28;20514;-71
2021/01/09 02:31:08;;;;;;;17.80;8.57;;;1.70;99.90;;;;;;5097510;28;20438;-71
2021/01/09 02:33:38;;;;;;;20.37;9.33;;;1.90;99.90;;;;;;5096895;28;20676;-71
2021/01/09 02:36:07;;;;;;;19.13;9.40;;;1.70;99.90;;;;;;5097637;28;20048;-71
2021/01/09 02:38:33;;;;;;;17.83;9.10;;;1.70;99.90;;;;;;5098368;28;20044;-71
2021/01/09 02:41:04;;;;;;;18.63;9.07;;;1.70;99.90;;;;;;5098189;28;20051;-71
2021/01/09 02:43:31;;;;;;;18.43;9.30;;;1.70;99.90;;;;;;5098718;28;20058;-71
2021/01/09 02:45:58;;;;;;;19.60;9.30;;;1.70;99.90;;;;;;5096742;28;20510;-71
2021/01/09 02:48:24;;;;;;;20.83;9.90;;;1.70;99.90;;;;;;5097215;28;21073;-71
2021/01/09 02:50:51;;;;;;;19.80;9.43;;;1.70;99.90;;;;;;5099610;28;20040;-71
2021/01/09 02:53:18;;;;;;;20.03;10.63;;;1.70;99.90;;;;;;5096661;28;20093;-71
2021/01/09 02:55:44;;;;;;;19.63;10.23;;;1.80;99.90;;;;;;5088376;28;20064;-71
2021/01/09 02:58:12;;;;;;;24.27;10.47;;;1.70;99.90;;;;;;5087149;28;20089;-72
2021/01/09 03:00:39;;;;;;;19.30;9.70;;;1.70;99.90;;;;;;5087657;28;20047;-71
2021/01/09 03:03:05;;;;;;;19.37;9.80;;;1.80;99.90;;;;;;5093311;28;20097;-71
2021/01/09 03:05:32;;;;;;;21.37;10.00;;;1.80;99.90;;;;;;5098203;28;20047;-71
2021/01/09 03:07:59;;;;;;;21.30;9.90;;;1.70;99.90;;;;;;5097569;28;20134;-71
2021/01/09 03:10:25;;;;;;;20.57;9.67;;;1.70;99.90;;;;;;5086828;28;20714;-71
2021/01/09 03:12:52;;;;;;;18.83;9.30;;;1.70;99.90;;;;;;5088386;28;20078;-71
2021/01/09 03:15:19;;;;;;;19.27;9.20;;;1.70;99.90;;;;;;5086601;28;20804;-71
2021/01/09 03:17:48;;;;;;;20.77;9.40;;;1.60;99.90;;;;;;5097182;28;20047;-72
2021/01/09 03:20:14;;;;;;;20.97;10.17;;;1.60;99.90;;;;;;5100564;28;20489;-71
2021/01/09 03:22:42;;;;;;;21.50;10.27;;;1.70;99.90;;;;;;5101548;28;20468;-71
2021/01/09 03:25:11;;;;;;;21.13;10.07;;;1.60;99.90;;;;;;5099711;28;20575;-71
2021/01/09 03:27:37;;;;;;;18.93;9.50;;;1.70;99.90;;;;;;5100371;28;20044;-71
2021/01/09 03:30:05;;;;;;;19.87;9.50;;;1.60;99.90;;;;;;5100966;28;20051;-71
2021/01/09 03:32:33;;;;;;;21.10;9.87;;;1.70;99.90;;;;;;5103604;28;20052;-71
2021/01/09 03:34:59;;;;;;;19.53;9.40;;;1.50;99.90;;;;;;5100638;28;20048;-71
2021/01/09 03:37:26;;;;;;;19.33;9.20;;;1.50;99.90;;;;;;5100668;28;20048;-74
2021/01/09 03:39:53;;;;;;;21.87;10.13;;;1.50;99.90;;;;;;5100472;28;20070;-74
2021/01/09 03:42:19;;;;;;;22.50;10.77;;;1.50;99.90;;;;;;5104094;28;20731;-75
2021/01/09 03:44:46;;;;;;;21.83;10.33;;;1.60;99.90;;;;;;5106528;28;20047;-74
2021/01/09 03:47:13;;;;;;;21.73;10.80;;;1.60;99.90;;;;;;5104370;28;20495;-74
2021/01/09 03:49:40;;;;;;;23.50;11.43;;;1.50;99.90;;;;;;5105277;28;20503;-74
2021/01/09 03:52:07;;;;;;;24.13;11.37;;;1.60;99.90;;;;;;5102287;28;20056;-74
2021/01/09 03:54:33;;;;;;;24.37;12.10;;;1.60;99.90;;;;;;5097949;28;20048;-74
2021/01/09 03:57:00;;;;;;;23.90;11.90;;;1.70;99.90;;;;;;5095762;28;20048;-74
2021/01/09 03:59:26;;;;;;;22.23;10.77;;;1.60;99.90;;;;;;5090774;28;20059;-74
2021/01/09 04:01:53;;;;;;;20.40;9.53;;;1.60;99.90;;;;;;5091115;28;20417;-74
2021/01/09 04:04:20;;;;;;;24.13;11.33;;;1.60;99.90;;;;;;5090501;28;20052;-74
2021/01/09 04:06:47;;;;;;;23.00;11.27;;;1.50;99.90;;;;;;5091399;28;20052;-74
2021/01/09 04:09:14;;;;;;;23.40;11.40;;;1.70;99.90;;;;;;5091065;28;20792;-74
2021/01/09 04:11:43;;;;;;;26.43;11.80;;;1.70;99.90;;;;;;5090297;28;20056;-74
2021/01/09 04:14:10;;;;;;;22.83;11.03;;;1.60;99.90;;;;;;5091228;28;20084;-74
2021/01/09 04:16:37;;;;;;;24.17;10.60;;;1.70;99.90;;;;;;5090246;28;20453;-74
2021/01/09 04:19:04;;;;;;;19.57;9.67;;;1.60;99.90;;;;;;5091677;28;20044;-73
2021/01/09 04:21:31;;;;;;;22.17;10.17;;;1.70;99.90;;;;;;5089371;28;20503;-74
2021/01/09 04:23:58;;;;;;;25.70;11.03;;;1.50;99.90;;;;;;5090733;28;20052;-75
2021/01/09 04:26:25;;;;;;;23.07;9.80;;;1.40;99.90;;;;;;5090536;28;20447;-74
2021/01/09 04:28:51;;;;;;;23.20;10.03;;;1.40;99.90;;;;;;5090100;28;20048;-74
2021/01/09 04:31:18;;;;;;;20.33;10.37;;;1.40;99.90;;;;;;5090124;28;20048;-74
2021/01/09 04:33:45;;;;;;;25.00;11.30;;;1.60;99.90;;;;;;5090102;28;20058;-74
2021/01/09 04:36:11;;;;;;;21.80;9.90;;;1.50;99.90;;;;;;5090759;28;20048;-74
2021/01/09 04:38:38;;;;;;;22.23;10.10;;;1.50;99.90;;;;;;5090571;28;20048;-74
2021/01/09 04:41:06;;;;;;;24.57;11.87;;;1.50;99.90;;;;;;5089472;28;20063;-74
2021/01/09 04:43:33;;;;;;;26.87;10.60;;;1.40;99.90;;;;;;5090698;28;20504;-75
2021/01/09 04:46:01;;;;;;;26.93;11.73;;;1.40;99.90;;;;;;5089723;28;20048;-74
2021/01/09 04:48:29;;;;;;;25.60;10.17;;;1.40;99.90;;;;;;5090515;28;20055;-74
2021/01/09 04:50:56;;;;;;;22.73;10.93;;;1.30;99.90;;;;;;5090128;28;20059;-74
2021/01/09 04:53:24;;;;;;;23.77;11.00;;;1.30;99.90;;;;;;5089465;28;20052;-74
2021/01/09 04:55:53;;;;;;;27.73;12.23;;;1.20;99.90;;;;;;5090359;28;20052;-75
2021/01/09 04:58:20;;;;;;;23.17;11.10;;;1.20;99.90;;;;;;5089225;28;20048;-74
2021/01/09 05:00:53;;;;;;;23.87;10.87;;;1.30;99.90;;;;;;5089855;28;20044;-74
2021/01/09 05:03:20;;;;;;;22.57;10.83;;;1.40;99.90;;;;;;5090126;28;20139;-74
2021/01/09 05:05:47;;;;;;;24.87;11.50;;;1.40;99.90;;;;;;5089927;28;20109;-74
2021/01/09 05:08:14;;;;;;;26.00;11.77;;;1.30;99.90;;;;;;5089879;28;20060;-74
2021/01/09 05:10:41;;;;;;;26.23;10.80;;;1.40;99.90;;;;;;5088916;28;20404;-74
2021/01/09 05:13:08;;;;;;;22.03;10.57;;;1.40;99.90;;;;;;5089880;28;20040;-74
2021/01/09 05:15:37;;;;;;;28.40;12.60;;;1.40;99.90;;;;;;5090082;28;20052;-74
2021/01/09 05:18:04;;;;;;;28.17;12.80;;;1.50;99.90;;;;;;5089131;28;20048;-75
2021/01/09 05:20:32;;;;;;;23.03;10.40;;;1.50;99.90;;;;;;5088850;28;20060;-75
2021/01/09 05:23:00;;;;;;;25.10;11.80;;;1.40;99.90;;;;;;5089145;28;20051;-74
2021/01/09 05:25:28;;;;;;;25.30;11.07;;;1.30;99.90;;;;;;5090038;28;20621;-75
2021/01/09 05:27:55;;;;;;;23.97;11.03;;;1.30;99.90;;;;;;5248935;22;20044;-73
2021/01/09 05:30:23;;;;;;;27.43;12.37;;;1.40;99.90;;;;;;5087414;28;20050;-72
2021/01/09 05:32:51;;;;;;;33.63;13.70;;;1.50;99.90;;;;;;5086506;28;20475;-74
2021/01/09 05:35:19;;;;;;;30.97;13.27;;;1.50;99.90;;;;;;5087666;28;20131;-72
2021/01/09 05:37:48;;;;;;;31.53;13.67;;;1.50;99.90;;;;;;5077301;28;20488;-78
2021/01/09 05:40:15;;;;;;;26.23;11.93;;;1.40;99.90;;;;;;5069151;28;20087;-72
2021/01/09 05:42:42;;;;;;;25.63;11.23;;;1.40;99.90;;;;;;5068934;28;20076;-74
2021/01/09 05:45:11;;;;;;;23.10;11.33;;;1.40;99.90;;;;;;5068710;28;20045;-72
2021/01/09 05:47:38;;;;;;;23.07;10.00;;;1.50;99.90;;;;;;5067217;28;20573;-74
2021/01/09 05:50:09;;;;;;;24.53;10.60;;;1.30;99.90;;;;;;5068530;28;20454;-73
2021/01/09 05:52:39;;;;;;;23.67;10.50;;;1.40;99.90;;;;;;5069703;28;20056;-72
2021/01/09 05:55:07;;;;;;;21.90;10.20;;;1.30;99.90;;;;;;5063795;28;20049;-73
2021/01/09 05:57:35;;;;;;;24.07;10.90;;;1.20;99.90;;;;;;5068851;28;20056;-73
2021/01/09 06:00:06;;;;;;;23.47;10.37;;;1.10;99.90;;;;;;5067377;28;20052;-72
2021/01/09 06:02:47;;;;;;;25.80;11.53;;;1.10;99.90;;;;;;5068058;28;20056;-73
2021/01/09 06:05:18;;;;;;;24.27;10.90;;;1.00;99.90;;;;;;5067544;28;20515;-74
2021/01/09 06:07:49;;;;;;;26.20;11.77;;;1.00;99.90;;;;;;5068889;28;20060;-74
2021/01/09 06:10:20;;;;;;;28.33;11.30;;;1.00;99.90;;;;;;5069555;28;20057;-76
2021/01/09 06:12:59;;;;;;;26.97;11.67;;;0.90;99.90;;;;;;5068505;28;20109;-73
2021/01/09 06:15:29;;;;;;;25.87;11.57;;;0.90;99.90;;;;;;5067708;28;20131;-75
2021/01/09 06:17:56;;;;;;;28.30;11.90;;;0.80;99.90;;;;;;5066738;28;20053;-73
2021/01/09 06:20:25;;;;;;;29.07;11.60;;;0.80;99.90;;;;;;5068292;28;20566;-74
2021/01/09 06:22:52;;;;;;;27.33;11.40;;;0.70;99.90;;;;;;5068645;28;20051;-73
2021/01/09 06:25:20;;;;;;;27.20;11.50;;;0.60;99.90;;;;;;5070273;28;20101;-75
2021/01/09 06:27:52;;;;;;;28.30;12.17;;;0.60;99.90;;;;;;5070132;28;20466;-73
2021/01/09 06:30:21;;;;;;;32.17;13.23;;;0.70;99.90;;;;;;5068738;28;20058;-73
2021/01/09 06:32:56;;;;;;;28.17;11.63;;;0.50;99.90;;;;;;5070930;28;20045;-73
2021/01/09 06:35:23;;;;;;;26.53;11.20;;;0.50;99.90;;;;;;5069511;28;20045;-75
2021/01/09 06:37:50;;;;;;;32.30;12.80;;;0.50;99.90;;;;;;5070676;28;20045;-74
2021/01/09 06:40:17;;;;;;;31.30;13.73;;;0.40;99.90;;;;;;5069568;28;20056;-73
2021/01/09 06:42:46;;;;;;;31.60;11.70;;;0.30;99.90;;;;;;5070105;28;20497;-74
2021/01/09 06:45:14;;;;;;;31.90;13.63;;;0.30;99.90;;;;;;5069862;28;20099;-74
2021/01/09 06:47:41;;;;;;;30.77;13.07;;;0.30;99.90;;;;;;5069210;28;20048;-73
2021/01/09 06:50:34;;;;;;;32.13;14.53;;;0.30;99.90;;;;;;5070305;28;20106;-74
2021/01/09 06:53:01;;;;;;;32.63;12.93;;;0.20;99.90;;;;;;5049573;28;20053;-76
2021/01/09 06:55:53;;;;;;;35.30;13.33;;;0.10;99.90;;;;;;5066574;28;20053;-73
2021/01/09 06:58:25;;;;;;;34.00;14.10;;;0.20;99.90;;;;;;5073466;28;20071;-76
2021/01/09 07:00:52;;;;;;;36.80;14.37;;;0.20;99.90;;;;;;5073786;28;20091;-73
2021/01/09 07:03:20;;;;;;;35.17;14.77;;;0.20;99.90;;;;;;5074804;28;20094;-76
2021/01/09 07:05:49;;;;;;;35.63;15.00;;;0.20;99.90;;;;;;5073688;28;20167;-74
2021/01/09 07:08:20;;;;;;;40.90;17.13;;;0.20;99.90;;;;;;5074236;28;20080;-73
2021/01/09 07:10:50;;;;;;;41.83;16.70;;;0.20;99.90;;;;;;5072475;28;20048;-73
2021/01/09 07:13:18;;;;;;;42.27;15.67;;;0.20;99.90;;;;;;5073958;28;20052;-73
2021/01/09 07:15:45;;;;;;;37.93;15.60;;;0.20;99.90;;;;;;5073813;28;20063;-75
2021/01/09 07:18:12;;;;;;;43.30;17.17;;;0.10;99.90;;;;;;5073267;28;20041;-74
2021/01/09 07:20:42;;;;;;;40.73;16.30;;;0.00;99.90;;;;;;5073454;28;20537;-75
2021/01/09 07:23:10;;;;;;;42.63;15.87;;;0.10;99.90;;;;;;5071957;28;20048;-73
2021/01/09 07:25:38;;;;;;;38.60;16.97;;;0.00;99.90;;;;;;5073717;28;20052;-78
2021/01/09 07:28:09;;;;;;;40.67;15.93;;;0.00;99.90;;;;;;5073236;28;20139;-78
2021/01/09 07:30:36;;;;;;;40.43;15.67;;;-0.10;99.90;;;;;;5073358;28;20074;-73
2021/01/09 07:33:05;;;;;;;42.33;15.40;;;-0.10;99.90;;;;;;5073419;28;20049;-72
2021/01/09 07:35:33;;;;;;;39.10;14.97;;;-0.10;99.90;;;;;;5072729;28;20048;-73
2021/01/09 07:38:01;;;;;;;39.60;15.77;;;-0.20;99.90;;;;;;5073738;28;20079;-75
2021/01/09 07:40:34;;;;;;;40.33;15.80;;;-0.20;99.90;;;;;;5072410;28;20060;-73
2021/01/09 07:43:01;;;;;;;40.27;15.57;;;-0.20;99.90;;;;;;5072034;28;20052;-73
2021/01/09 07:45:32;;;;;;;39.83;15.20;;;0.00;99.90;;;;;;5072521;28;20044;-74
2021/01/09 07:47:59;;;;;;;41.00;14.53;;;0.00;99.90;;;;;;5071336;28;20110;-73
2021/01/09 07:50:26;;;;;;;36.33;15.00;;;0.00;99.90;;;;;;5072162;28;20417;-73
2021/01/09 07:53:05;;;;;;;38.90;14.30;;;0.00;99.90;;;;;;5071244;28;20657;-72
2021/01/09 07:55:46;;;;;;;34.40;13.03;;;0.00;99.90;;;;;;5073476;28;20078;-74
2021/01/09 07:58:13;;;;;;;34.17;13.80;;;0.00;99.90;;;;;;5072327;28;20089;-72
2021/01/09 08:00:42;;;;;;;36.47;14.10;;;0.00;99.90;;;;;;5072693;28;20049;-74
2021/01/09 08:03:10;;;;;;;33.80;13.37;;;0.00;99.90;;;;;;5073669;28;20055;-73
2021/01/09 08:05:37;;;;;;;32.37;12.87;;;0.10;99.90;;;;;;5071651;28;20048;-73
2021/01/09 08:08:05;;;;;;;37.37;13.97;;;0.10;99.90;;;;;;5072048;28;20481;-76
2021/01/09 08:10:32;;;;;;;29.83;12.53;;;0.20;99.90;;;;;;5071204;28;20068;-76
2021/01/09 08:13:01;;;;;;;31.70;13.37;;;0.40;99.90;;;;;;5072906;28;20493;-72
2021/01/09 08:15:29;;;;;;;28.60;12.03;;;0.40;99.90;;;;;;5072664;28;20049;-75
2021/01/09 08:18:00;;;;;;;29.47;11.90;;;0.60;99.90;;;;;;5071626;28;20064;-75
2021/01/09 08:20:27;;;;;;;26.43;11.47;;;0.70;99.90;;;;;;5072369;28;20053;-73
2021/01/09 08:22:56;;;;;;;26.90;12.00;;;0.80;99.90;;;;;;5071328;28;20044;-76
2021/01/09 08:25:24;;;;;;;26.07;11.20;;;1.00;99.90;;;;;;5072272;28;20072;-72
2021/01/09 08:27:53;;;;;;;24.30;10.43;;;1.00;99.90;;;;;;5071316;28;20488;-76
2021/01/09 08:30:23;;;;;;;24.07;10.53;;;1.10;99.90;;;;;;5071548;28;20045;-74
2021/01/09 08:32:50;;;;;;;22.60;9.77;;;1.30;99.90;;;;;;5072395;28;20049;-76
2021/01/09 08:35:17;;;;;;;23.00;10.33;;;1.20;99.90;;;;;;5071401;28;20055;-74
2021/01/09 08:37:44;;;;;;;24.80;10.17;;;1.20;99.90;;;;;;5072198;28;20044;-73
2021/01/09 08:40:19;;;;;;;23.73;10.93;;;1.10;99.90;;;;;;5070240;28;20055;-73
2021/01/09 08:42:53;;;;;;;25.67;11.80;;;1.20;99.90;;;;;;5071903;28;20052;-73
2021/01/09 08:45:34;;;;;;;22.77;10.10;;;1.30;99.90;;;;;;5070417;28;20048;-76
2021/01/09 08:48:02;;;;;;;24.33;11.53;;;1.30;99.90;;;;;;5071508;28;20052;-73
2021/01/09 08:50:30;;;;;;;25.23;10.43;;;1.40;99.90;;;;;;5070827;28;20052;-73
2021/01/09 08:53:01;;;;;;;23.83;10.53;;;1.50;99.90;;;;;;5064415;28;20056;-73
2021/01/09 08:55:31;;;;;;;18.70;8.87;;;1.80;99.90;;;;;;5071154;28;20210;-74
2021/01/09 08:57:59;;;;;;;17.93;8.73;;;2.00;99.90;;;;;;5050692;28;20102;-74
2021/01/09 09:00:26;;;;;;;21.60;9.60;;;2.10;99.90;;;;;;5049991;28;20057;-74
2021/01/09 09:02:55;;;;;;;22.43;9.80;;;2.20;99.90;;;;;;5048856;28;20048;-75
2021/01/09 09:05:26;;;;;;;18.90;8.93;;;2.30;99.90;;;;;;5063012;28;20044;-74
2021/01/09 09:07:56;;;;;;;19.20;8.87;;;2.40;99.90;;;;;;5070683;28;20110;-74
2021/01/09 09:10:25;;;;;;;20.37;9.57;;;2.40;99.90;;;;;;5068175;28;20055;-75
2021/01/09 09:12:52;;;;;;;18.53;8.90;;;2.60;99.90;;;;;;5059939;28;20094;-75
2021/01/09 09:15:28;;;;;;;19.17;9.00;;;2.90;99.90;;;;;;5063115;28;20045;-75
2021/01/09 09:17:56;;;;;;;19.00;9.13;;;3.20;99.90;;;;;;5066983;28;20071;-74
2021/01/09 09:20:25;;;;;;;19.67;9.10;;;3.50;99.90;;;;;;5055609;28;20068;-73
2021/01/09 09:22:52;;;;;;;19.03;8.90;;;3.90;99.90;;;;;;5065499;28;20060;-73
2021/01/09 09:25:25;;;;;;;19.83;9.03;;;4.10;99.90;;;;;;5069345;28;20064;-73
2021/01/09 09:28:02;;;;;;;16.00;8.10;;;4.10;99.90;;;;;;5052742;28;20501;-74
2021/01/09 09:30:29;;;;;;;22.33;9.82;;;3.80;99.90;;;;;;5062872;28;20053;-74
2021/01/09 09:33:09;;;;;;;20.03;9.33;;;3.80;99.90;;;;;;5060530;28;20048;-74
2021/01/09 09:35:38;;;;;;;19.20;8.60;;;3.80;99.90;;;;;;5062167;28;20056;-73
2021/01/09 09:38:06;;;;;;;19.37;9.07;;;3.70;99.90;;;;;;5050448;28;20048;-74
2021/01/09 09:40:34;;;;;;;16.37;8.33;;;3.60;99.90;;;;;;5069270;28;20095;-73
2021/01/09 09:43:16;;;;;;;19.13;8.60;;;3.40;99.90;;;;;;5058530;28;20048;-75
2021/01/09 09:45:56;;;;;;;16.30;7.93;;;3.30;99.90;;;;;;5063766;28;20052;-73
2021/01/09 09:48:32;;;;;;;17.97;8.00;;;3.10;99.90;;;;;;5070261;28;20139;-72
2021/01/09 09:51:07;;;;;;;15.68;7.97;;;3.20;99.90;;;;;;5069077;28;20083;-74
2021/01/09 09:53:36;;;;;;;18.03;8.90;;;3.10;99.90;;;;;;5070451;28;20543;-74
2021/01/09 09:56:13;;;;;;;15.43;7.83;;;2.90;99.90;;;;;;5049986;28;20099;-73
2021/01/09 09:58:40;;;;;;;17.83;8.60;;;2.90;99.90;;;;;;5052328;28;20543;-82
2021/01/09 10:01:20;;;;;;;21.80;10.37;;;2.90;99.90;;;;;;5067838;28;20045;-79
2021/01/09 10:03:48;;;;;;;18.73;8.90;;;3.00;99.90;;;;;;5058121;28;20052;-78
2021/01/09 10:06:16;;;;;;;19.93;8.90;;;3.00;99.90;;;;;;5065771;28;20098;-80
2021/01/09 10:08:43;;;;;;;19.23;8.90;;;3.00;99.90;;;;;;5064689;28;20052;-79
2021/01/09 10:11:10;;;;;;;17.20;9.13;;;2.90;99.90;;;;;;5065386;28;20057;-81
2021/01/09 10:13:37;;;;;;;18.90;7.90;;;2.90;99.90;;;;;;5058092;28;20048;-78
2021/01/09 10:16:09;;;;;;;16.03;8.67;;;2.90;99.90;;;;;;5070375;28;20424;-81
2021/01/09 10:18:36;;;;;;;15.60;7.90;;;2.90;99.90;;;;;;5052809;28;20064;-83
2021/01/09 10:21:03;;;;;;;19.10;9.10;;;2.70;99.90;;;;;;5049874;28;20056;-77
2021/01/09 10:23:30;;;;;;;18.17;8.87;;;2.90;99.90;;;;;;5051662;28;20572;-82
2021/01/09 10:25:57;;;;;;;17.07;8.03;;;2.70;99.90;;;;;;5054413;28;20045;-78
2021/01/09 10:28:24;;;;;;;19.27;8.53;;;2.80;99.90;;;;;;5051889;28;20045;-79
2021/01/09 10:30:51;;;;;;;16.70;8.20;;;2.90;99.90;;;;;;5050253;28;20128;-78
2021/01/09 10:33:18;;;;;;;17.60;8.53;;;3.00;99.90;;;;;;5052054;28;20056;-82
2021/01/09 10:35:46;;;;;;;18.27;8.70;;;2.80;99.90;;;;;;5063097;28;20056;-79
2021/01/09 10:38:14;;;;;;;19.47;9.30;;;2.80;99.90;;;;;;5073885;28;20079;-79
2021/01/09 10:40:42;;;;;;;20.20;9.63;;;2.70;99.90;;;;;;5071288;28;20048;-79
2021/01/09 10:43:09;;;;;;;18.00;8.63;;;2.90;99.90;;;;;;5074456;28;20432;-79
2021/01/09 10:45:36;;;;;;;19.57;10.27;;;2.90;99.90;;;;;;5073783;28;20200;-78
2021/01/09 10:48:03;;;;;;;18.67;8.97;;;2.80;99.90;;;;;;5074249;28;20053;-81
2021/01/09 10:50:30;;;;;;;18.33;8.80;;;2.70;99.90;;;;;;5075080;28;20044;-76
2021/01/09 10:52:57;;;;;;;18.47;9.30;;;2.80;99.90;;;;;;5069406;28;20052;-71
2021/01/09 10:55:23;;;;;;;19.37;9.80;;;2.90;99.90;;;;;;5059685;28;20053;-72
2021/01/09 10:57:51;;;;;;;22.17;10.97;;;2.80;99.90;;;;;;5047819;28;20053;-71
2021/01/09 11:00:21;;;;;;;18.20;8.73;;;2.90;99.90;;;;;;5064948;28;20052;-72
2021/01/09 11:02:48;;;;;;;18.10;8.73;;;2.80;99.90;;;;;;5048654;28;20075;-73
2021/01/09 11:05:15;;;;;;;19.03;9.53;;;2.80;99.90;;;;;;5054443;28;20045;-72
2021/01/09 11:07:42;;;;;;;20.83;9.07;;;2.90;99.90;;;;;;5068515;28;20053;-72
2021/01/09 11:10:10;;;;;;;21.20;9.20;;;3.00;99.90;;;;;;5067376;28;20056;-72
2021/01/09 11:12:36;;;;;;;18.77;8.93;;;3.00;99.90;;;;;;5051501;28;20052;-76
2021/01/09 11:15:05;;;;;;;18.43;9.37;;;2.90;99.90;;;;;;5062125;28;20059;-73
2021/01/09 11:17:32;;;;;;;23.10;10.93;;;3.00;99.90;;;;;;5057793;28;20512;-71
2021/01/09 11:19:59;;;;;;;17.83;9.40;;;3.00;99.90;;;;;;5054568;28;20045;-73
2021/01/09 11:22:25;;;;;;;19.73;9.50;;;3.20;99.90;;;;;;5064666;28;20056;-72
2021/01/09 11:24:52;;;;;;;20.17;9.93;;;3.30;99.90;;;;;;5068224;28;20056;-73
2021/01/09 11:27:20;;;;;;;18.60;9.20;;;3.40;99.90;;;;;;5209181;22;20056;-72
2021/01/09 11:32:23;;;;;;;18.50;8.90;;;3.70;99.90;;;;;;5462965;22;20535;-71
2021/01/09 11:34:50;;;;;;;17.13;8.87;;;3.80;99.90;;;;;;5091403;28;20392;-72
2021/01/09 11:39:54;;;;;;;12.70;6.57;;;4.80;99.90;;;;;;5438149;22;20052;-67
2021/01/09 11:42:21;;;;;;;16.03;7.53;;;4.90;99.90;;;;;;5102683;28;20047;-67
2021/01/09 11:44:47;;;;;;;13.97;7.30;;;5.00;99.90;;;;;;5103988;28;20044;-67
2021/01/09 11:47:14;;;;;;;14.83;8.00;;;5.90;99.90;;;;;;5078759;28;20416;-68
2021/01/09 11:49:42;;;;;;;15.80;7.68;;;7.50;99.90;;;;;;5076329;28;20459;-68
2021/01/09 11:52:09;;;;;;;11.90;6.65;;;8.80;99.90;;;;;;5085653;28;20466;-67
2021/01/09 11:54:35;;;;;;;13.77;7.57;;;9.20;99.90;;;;;;5087713;28;20044;-67
2021/01/09 11:57:02;;;;;;;;;;;8.50;99.90;;;;;;5088331;28;20044;-68
2021/01/09 11:59:28;;;;;;;12.15;6.82;;;9.20;99.90;;;;;;5087581;28;20367;-67
2021/01/09 12:01:54;;;;;;;;;;;8.80;99.90;;;;;;5075120;28;20098;-68
2021/01/09 12:04:21;;;;;;;14.05;6.95;;;8.00;99.90;;;;;;5069260;28;19927;-68
2021/01/09 12:06:48;;;;;;;;;;;7.00;99.90;;;;;;5082395;28;20052;-68
2021/01/09 12:09:15;;;;;;;12.95;7.10;;;7.00;99.90;;;;;;5083955;28;20482;-68
2021/01/09 12:11:42;;;;;;;11.35;5.57;;;6.70;99.90;;;;;;5085826;28;20532;-68
2021/01/09 12:14:08;;;;;;;13.30;7.07;;;6.10;99.90;;;;;;5086528;28;20051;-68
2021/01/09 12:16:35;;;;;;;11.95;6.22;;;6.00;99.90;;;;;;5085707;28;20048;-68
2021/01/09 12:19:02;;;;;;;14.27;7.07;;;6.20;99.90;;;;;;5086985;28;20065;-68
2021/01/09 12:21:29;;;;;;;14.02;6.65;;;5.70;99.90;;;;;;5085048;28;20052;-68
2021/01/09 12:23:57;;;;;;;12.65;6.55;;;5.90;99.90;;;;;;5087644;28;20050;-68
2021/01/09 12:26:23;;;;;;;12.73;6.90;;;6.90;99.90;;;;;;5087138;28;20075;-68
2021/01/09 12:28:50;;;;;;;12.52;5.55;;;6.60;99.90;;;;;;5084574;28;20051;-68
2021/01/09 12:31:16;;;;;;;10.50;5.93;;;6.50;99.90;;;;;;5080099;28;20512;-68
2021/01/09 12:33:45;;;;;;;;;;;6.50;99.90;;;;;;5066402;28;20048;-68
2021/01/09 12:36:16;;;;;;;13.25;6.60;;;6.40;99.90;;;;;;5067150;28;19971;-68
2021/01/09 12:38:43;;;;;;;13.43;6.57;;;6.40;99.90;;;;;;5074463;28;20047;-68
2021/01/09 12:41:10;;;;;;;12.45;6.43;;;6.00;99.90;;;;;;5074748;28;20052;-72
2021/01/09 12:43:39;;;;;;;16.10;7.78;;;5.60;99.90;;;;;;5091667;28;20090;-74
2021/01/09 12:46:06;;;;;;;11.07;5.47;;;5.40;99.90;;;;;;5090638;28;20045;-74
2021/01/09 12:48:33;;;;;;;12.83;6.17;;;5.50;99.90;;;;;;5106067;28;20059;-74
2021/01/09 12:50:59;;;;;;;11.37;6.00;;;5.10;99.90;;;;;;5078456;28;20040;-74
2021/01/09 12:53:28;;;;;;;11.87;6.07;;;4.80;99.90;;;;;;5075462;28;20040;-78